Tropical Cyclones
[Index]
Main Index Home Page Stock Weather Photos Extreme Storms Discussion Storm News and Storm Chasing Reports Tropical Cyclones / Hurricanes / Typhoons Weather Data and Links Wild Fires / Bushfires Weather Observation Techniques Weather Picture Catalogue Tornado Pictures and Reports Stock Video Footage and DVDs for sale
Season 1999-2000 Tropical Cyclone STEVE Track Map
Season 1999-2000 Summaries: [BoM-AU] [JTWC-AU] [JTWC-SIO] [JTWC-SPAC] [JTWC-SH]
<<- Previous TC | BoM 1999-2000 Season | Next TC ->>

click for intensity scale information  Lat/long Grid: Show Hide

 Date Labels: Show Hide

Bureau of Meteorology Tropical Cyclone Data

Name: STEVE
Number: 835 / 199900_06

27 Feb 2000 00:00 UTC to 11 Mar 2000 22:00 UTC

    date/time    lat    long    hPa   cat  kts
2000-02-27 00   16.5   147.0    988    1    64          
2000-02-27 06   16.6   146.3    980    2    76          
2000-02-27 09   16.8   145.8    975    2    82          
2000-02-27 12   16.8   145.0    990    1    54          
2000-02-27 15   17.1   144.5    995    1    54          
2000-02-27 18   17.3   143.5    999         33          
2000-02-28 00   17.5   142.6   1002         33          
2000-02-28 06   17.5   141.5   1002         33          
2000-02-28 12   17.1   140.4    995    1    54          
2000-02-28 18   16.7   139.6    992    1    54          
2000-02-29 00   16.5   139.1    988    1    60          
2000-02-29 06   16.2   138.5    988    1    60          
2000-02-29 13   15.9   137.9    988    1    74          
2000-02-29 18   15.7   137.3    985    2    78          
2000-02-29 21   15.6   136.9    985    2    78          
2000-02-29 22   15.6   136.8    985    2    78          
2000-03-01 00   15.6   136.5    987    1    68          
2000-03-01 03   15.5   136.0    990    1    58          
2000-03-01 06   15.3   135.4    992    1                
2000-03-01 12   15.0   134.6    995    1                
2000-03-01 18   14.9   133.8    995    1                
2000-03-02 00   14.8   133.0    995    1                
2000-03-02 06   14.7   132.2    993    1                
2000-03-02 12   14.6   131.2    994    1                
2000-03-02 18   14.7   130.5    992    1                
2000-03-03 00   14.9   129.9    994    1                
2000-03-03 06   15.2   129.2    994    1                
2000-03-03 12   15.5   128.0    995    1                
2000-03-03 18   15.8   126.5    995    1                
2000-03-04 00   16.2   125.0    995    1                
2000-03-04 04   17.2   123.8    995    1    35          
2000-03-04 10   17.5   123.0    995    1    35          
2000-03-04 16   17.8   122.2    990    1    41          
2000-03-04 22   18.2   121.4    990    1    41          
2000-03-05 04   18.6   120.6    985    2    49          
2000-03-05 10   19.0   120.0    985    2    49          
2000-03-05 13   19.2   119.7    985    2    49          
2000-03-05 16   19.4   119.2    985    2    49          
2000-03-05 19   19.6   118.8    980    2    54          
2000-03-05 22   19.8   118.4    975    2    60          
2000-03-06 01   20.0   117.8    975    2    60          
2000-03-06 04   20.2   117.1    975    2    60          
2000-03-06 07   20.4   116.7    975    2    60          
2000-03-06 10   20.5   116.6    975    2    60          
2000-03-06 13   20.8   116.2    975    2    60          
2000-03-06 16   21.1   115.9    980    2    54          
2000-03-06 19   21.4   115.6    980    2    54          
2000-03-06 22   21.8   115.4    980    2    54          
2000-03-07 01   22.3   115.1    980    2    54          
2000-03-07 04   22.5   114.6    980    2    54          
2000-03-07 07   22.8   114.4    980    2    54          
2000-03-07 10   23.0   114.2    980    2    54          
2000-03-07 13   23.2   114.0    980    2    54          
2000-03-07 16   23.3   113.9    980    2    54          
2000-03-07 19   23.5   113.7    980    2    54          
2000-03-07 22   23.7   113.5    980    2    54          
2000-03-08 01   23.9   113.5    980    2    54          
2000-03-08 04   24.4   113.4    980    2    54          
2000-03-08 07   24.8   113.2    980    2    54          
2000-03-08 10   24.9   113.1    980    2    54          
2000-03-08 13   25.1   113.2    980    2    54          
2000-03-08 16   25.1   113.3    980    2    54          
2000-03-08 19   25.2   113.3    980    2    54          
2000-03-08 22   25.3   113.5    980    2    54          
2000-03-09 01   25.4   113.5    980    2    54          
2000-03-09 04   25.5   113.6    980    2    54          
2000-03-09 07   25.6   113.7    980    2    54          
2000-03-09 10   25.8   114.1    980    2    54          
2000-03-09 13   25.9   114.5    980    2    54          
2000-03-09 16   26.1   114.8    980    2    54          
2000-03-09 22   26.9   115.4    985    2    49          
2000-03-10 04   27.8   116.6    985    2    49          
2000-03-10 10   28.6   118.2    990    1    41          
2000-03-10 16   29.8   119.7    990    1    41          
2000-03-10 22   31.2   121.3    990    1    41          
2000-03-11 04   32.5   123.1    990    1    41          
2000-03-11 10   33.9   124.7    990    1    41          
2000-03-11 16   35.1   126.0    990    1    41          
2000-03-11 22   37.0   127.5    995    1    35          
Winds are 10-min average.

Tropical cyclone tracks developed by Michael Bath using data from the Bureau of Meteorology and Google Maps.


[Australian Severe Weather index] [Copyright Notice] [Email Contacts] [Search This Site] [Privacy Policy]
Document: tropical_cyclone_steve.htm Updated: 30 May 2013